sensor_id;sensor_type;location;lat;lon;timestamp;temperature;humidity
2062;DHT22;11070;51.336;12.340;2024-01-15T00:02:17;1.50;99.90
2062;DHT22;11070;51.336;12.340;2024-01-15T00:04:43;1.50;99.90
2062;DHT22;11070;51.336;12.340;2024-01-15T00:07:09;1.50;99.90
2062;DHT22;11070;51.336;12.340;2024-01-15T00:09:35;1.50;99.90
2062;DHT22;11070;51.336;12.340;2024-01-15T00:12:01;1.40;99.90
2062;DHT22;11070;51.336;12.340;2024-01-15T00:14:27;1.40;99.90
2062;DHT22;11070;51.336;12.340;2024-01-15T00:16:53;1.40;99.90
2062;DHT22;11070;51.336;12.340;2024-01-15T00:19:21;1.40;99.90
2062;DHT22;11070;51.336;12.340;2024-01-15T00:21:47;1.40;99.90
2062;DHT22;11070;51.336;12.340;2024-01-15T00:24:13;1.40;99.90
2062;DHT22;11070;51.336;12.340;2024-01-15T00:26:40;1.40;99.90
2062;DHT22;11070;51.336;12.340;2024-01-15T00:29:08;1.40;99.90
2062;DHT22;11070;51.336;12.340;2024-01-15T00:31:34;1.30;99.90
2062;DHT22;11070;51.336;12.340;2024-01-15T00:34:00;1.30;99.90
2062;DHT22;11070;51.336;12.340;2024-01-15T00:36:26;1.30;99.90
2062;DHT22;11070;51.336;12.340;2024-01-15T00:38:52;1.20;99.90
2062;DHT22;11070;51.336;12.340;2024-01-15T00:41:18;1.20;99.90
2062;DHT22;11070;51.336;12.340;2024-01-15T00:43:47;1.20;99.90
2062;DHT22;11070;51.336;12.340;2024-01-15T00:46:14;1.20;99.90
2062;DHT22;11070;51.336;12.340;2024-01-15T00:48:40;1.20;99.90
2062;DHT22;11070;51.336;12.340;2024-01-15T00:51:06;1.30;99.90
2062;DHT22;11070;51.336;12.340;2024-01-15T00:53:31;1.30;99.90
2062;DHT22;11070;51.336;12.340;2024-01-15T00:55:57;1.30;99.90
2062;DHT22;11070;51.336;12.340;2024-01-15T00:58:23;1.30;99.90
2062;DHT22;11070;51.336;12.340;2024-01-15T01:00:48;1.30;99.90
2062;DHT22;11070;51.336;12.340;2024-01-15T01:03:14;1.30;99.90
2062;DHT22;11070;51.336;12.340;2024-01-15T01:05:40;1.30;99.90
2062;DHT22;11070;51.336;12.340;2024-01-15T01:08:05;1.30;99.90
2062;DHT22;11070;51.336;12.340;2024-01-15T01:10:31;1.30;99.90
2062;DHT22;11070;51.336;12.340;2024-01-15T01:12:57;1.30;99.90
2062;DHT22;11070;51.336;12.340;2024-01-15T01:15:22;1.30;99.90
2062;DHT22;11070;51.336;12.340;2024-01-15T01:17:50;1.30;99.90
2062;DHT22;11070;51.336;12.340;2024-01-15T01:20:15;1.30;99.90
2062;DHT22;11070;51.336;12.340;2024-01-15T01:22:41;1.20;99.90
2062;DHT22;11070;51.336;12.340;2024-01-15T01:25:07;1.20;99.90
2062;DHT22;11070;51.336;12.340;2024-01-15T01:27:33;1.20;99.90
2062;DHT22;11070;51.336;12.340;2024-01-15T01:29:59;1.20;99.90
2062;DHT22;11070;51.336;12.340;2024-01-15T01:32:24;1.20;99.90
2062;DHT22;11070;51.336;12.340;2024-01-15T01:34:50;1.20;99.90
2062;DHT22;11070;51.336;12.340;2024-01-15T01:37:16;1.20;99.90
2062;DHT22;11070;51.336;12.340;2024-01-15T01:39:42;1.20;99.90
2062;DHT22;11070;51.336;12.340;2024-01-15T01:42:08;1.20;99.90
2062;DHT22;11070;51.336;12.340;2024-01-15T01:44:34;1.20;99.90
2062;DHT22;11070;51.336;12.340;2024-01-15T01:47:00;1.20;99.90
2062;DHT22;11070;51.336;12.340;2024-01-15T01:49:27;1.20;99.90
2062;DHT22;11070;51.336;12.340;2024-01-15T01:51:57;1.20;99.90
2062;DHT22;11070;51.336;12.340;2024-01-15T01:54:23;1.10;99.90
2062;DHT22;11070;51.336;12.340;2024-01-15T01:56:50;1.10;99.90
2062;DHT22;11070;51.336;12.340;2024-01-15T01:59:17;1.10;99.90
2062;DHT22;11070;51.336;12.340;2024-01-15T02:01:44;1.10;99.90
2062;DHT22;11070;51.336;12.340;2024-01-15T02:04:11;1.00;99.90
2062;DHT22;11070;51.336;12.340;2024-01-15T02:06:36;1.00;99.90
2062;DHT22;11070;51.336;12.340;2024-01-15T02:09:03;1.00;99.90
2062;DHT22;11070;51.336;12.340;2024-01-15T02:11:30;1.00;99.90
2062;DHT22;11070;51.336;12.340;2024-01-15T02:13:56;0.90;99.90
2062;DHT22;11070;51.336;12.340;2024-01-15T02:16:22;0.90;99.90
2062;DHT22;11070;51.336;12.340;2024-01-15T02:18:47;0.90;99.90
2062;DHT22;11070;51.336;12.340;2024-01-15T02:21:13;0.90;99.90
2062;DHT22;11070;51.336;12.340;2024-01-15T02:23:39;0.90;99.90
2062;DHT22;11070;51.336;12.340;2024-01-15T02:26:05;0.90;99.90
2062;DHT22;11070;51.336;12.340;2024-01-15T02:28:32;0.90;99.90
2062;DHT22;11070;51.336;12.340;2024-01-15T02:30:58;0.90;99.90
2062;DHT22;11070;51.336;12.340;2024-01-15T02:33:24;0.90;99.90
2062;DHT22;11070;51.336;12.340;2024-01-15T02:35:50;0.90;99.90
2062;DHT22;11070;51.336;12.340;2024-01-15T02:38:16;0.90;99.90
2062;DHT22;11070;51.336;12.340;2024-01-15T02:40:43;0.90;99.90
2062;DHT22;11070;51.336;12.340;2024-01-15T02:43:09;0.90;99.90
2062;DHT22;11070;51.336;12.340;2024-01-15T02:45:35;0.90;99.90
2062;DHT22;11070;51.336;12.340;2024-01-15T02:48:00;0.90;99.90
2062;DHT22;11070;51.336;12.340;2024-01-15T02:50:26;0.90;99.90
2062;DHT22;11070;51.336;12.340;2024-01-15T02:52:52;0.90;99.90
2062;DHT22;11070;51.336;12.340;2024-01-15T02:55:17;1.00;99.90
2062;DHT22;11070;51.336;12.340;2024-01-15T02:57:43;0.90;99.90
2062;DHT22;11070;51.336;12.340;2024-01-15T03:00:09;0.90;99.90
2062;DHT22;11070;51.336;12.340;2024-01-15T03:02:39;0.90;99.90
2062;DHT22;11070;51.336;12.340;2024-01-15T03:05:06;0.90;99.90
2062;DHT22;11070;51.336;12.340;2024-01-15T03:07:32;0.90;99.90
2062;DHT22;11070;51.336;12.340;2024-01-15T03:09:57;0.90;99.90
2062;DHT22;11070;51.336;12.340;2024-01-15T03:12:23;0.90;99.90
2062;DHT22;11070;51.336;12.340;2024-01-15T03:14:49;0.90;99.90
2062;DHT22;11070;51.336;12.340;2024-01-15T03:17:14;0.80;99.90
2062;DHT22;11070;51.336;12.340;2024-01-15T03:19:40;0.80;99.90
2062;DHT22;11070;51.336;12.340;2024-01-15T03:22:06;0.80;99.90
2062;DHT22;11070;51.336;12.340;2024-01-15T03:24:33;0.80;99.90
2062;DHT22;11070;51.336;12.340;2024-01-15T03:26:59;0.70;99.90
2062;DHT22;11070;51.336;12.340;2024-01-15T03:29:26;0.70;99.90
2062;DHT22;11070;51.336;12.340;2024-01-15T03:31:52;0.70;99.90
2062;DHT22;11070;51.336;12.340;2024-01-15T03:34:18;0.70;99.90
2062;DHT22;11070;51.336;12.340;2024-01-15T03:36:43;0.70;99.90
2062;DHT22;11070;51.336;12.340;2024-01-15T03:39:09;0.60;99.90
2062;DHT22;11070;51.336;12.340;2024-01-15T03:41:35;0.60;99.90
2062;DHT22;11070;51.336;12.340;2024-01-15T03:44:00;0.60;99.90
2062;DHT22;11070;51.336;12.340;2024-01-15T03:46:27;0.60;99.90
2062;DHT22;11070;51.336;12.340;2024-01-15T03:48:52;0.60;99.90
2062;DHT22;11070;51.336;12.340;2024-01-15T03:51:18;0.60;99.90
2062;DHT22;11070;51.336;12.340;2024-01-15T03:53:44;0.50;99.90
2062;DHT22;11070;51.336;12.340;2024-01-15T03:56:10;0.50;99.90
2062;DHT22;11070;51.336;12.340;2024-01-15T03:58:36;0.50;99.90
2062;DHT22;11070;51.336;12.340;2024-01-15T04:01:02;0.60;99.90
2062;DHT22;11070;51.336;12.340;2024-01-15T04:03:27;0.60;99.90
2062;DHT22;11070;51.336;12.340;2024-01-15T04:05:53;0.70;99.90
2062;DHT22;11070;51.336;12.340;2024-01-15T04:08:19;0.70;99.90
2062;DHT22;11070;51.336;12.340;2024-01-15T04:10:44;0.70;99.90
2062;DHT22;11070;51.336;12.340;2024-01-15T04:13:10;0.70;99.90
2062;DHT22;11070;51.336;12.340;2024-01-15T04:15:36;0.80;99.90
2062;DHT22;11070;51.336;12.340;2024-01-15T04:18:02;0.80;99.90
2062;DHT22;11070;51.336;12.340;2024-01-15T04:20:28;0.80;99.90
2062;DHT22;11070;51.336;12.340;2024-01-15T04:22:54;0.80;99.90
2062;DHT22;11070;51.336;12.340;2024-01-15T04:25:20;0.80;99.90
2062;DHT22;11070;51.336;12.340;2024-01-15T04:27:46;0.80;99.90
2062;DHT22;11070;51.336;12.340;2024-01-15T04:30:11;0.80;99.90
2062;DHT22;11070;51.336;12.340;2024-01-15T04:32:37;0.70;99.90
2062;DHT22;11070;51.336;12.340;2024-01-15T04:35:03;0.70;99.90
2062;DHT22;11070;51.336;12.340;2024-01-15T04:37:29;0.60;99.90
2062;DHT22;11070;51.336;12.340;2024-01-15T04:39:54;0.60;99.90
2062;DHT22;11070;51.336;12.340;2024-01-15T04:42:23;0.60;99.90
2062;DHT22;11070;51.336;12.340;2024-01-15T04:44:49;0.60;99.90
2062;DHT22;11070;51.336;12.340;2024-01-15T04:47:15;0.50;99.90
2062;DHT22;11070;51.336;12.340;2024-01-15T04:49:41;0.50;99.90
2062;DHT22;11070;51.336;12.340;2024-01-15T04:52:06;0.50;99.90
2062;DHT22;11070;51.336;12.340;2024-01-15T04:54:32;0.50;99.90
2062;DHT22;11070;51.336;12.340;2024-01-15T04:56:58;0.60;99.90
2062;DHT22;11070;51.336;12.340;2024-01-15T04:59:23;0.60;99.90
2062;DHT22;11070;51.336;12.340;2024-01-15T05:01:49;0.60;99.90
2062;DHT22;11070;51.336;12.340;2024-01-15T05:04:15;0.70;99.90
2062;DHT22;11070;51.336;12.340;2024-01-15T05:06:40;0.70;99.90
2062;DHT22;11070;51.336;12.340;2024-01-15T05:09:06;0.70;99.90
2062;DHT22;11070;51.336;12.340;2024-01-15T05:11:32;0.70;99.90
2062;DHT22;11070;51.336;12.340;2024-01-15T05:13:58;0.80;99.90
2062;DHT22;11070;51.336;12.340;2024-01-15T05:16:23;0.80;99.90
2062;DHT22;11070;51.336;12.340;2024-01-15T05:18:49;0.80;99.90
2062;DHT22;11070;51.336;12.340;2024-01-15T05:21:15;0.80;99.90
2062;DHT22;11070;51.336;12.340;2024-01-15T05:23:40;0.80;99.90
2062;DHT22;11070;51.336;12.340;2024-01-15T05:26:06;0.80;99.90
2062;DHT22;11070;51.336;12.340;2024-01-15T05:28:32;0.90;99.90
2062;DHT22;11070;51.336;12.340;2024-01-15T05:30:58;0.90;99.90
2062;DHT22;11070;51.336;12.340;2024-01-15T05:33:23;0.90;99.90
2062;DHT22;11070;51.336;12.340;2024-01-15T05:35:49;0.80;99.90
2062;DHT22;11070;51.336;12.340;2024-01-15T05:38:16;0.80;99.90
2062;DHT22;11070;51.336;12.340;2024-01-15T05:40:42;0.80;99.90
2062;DHT22;11070;51.336;12.340;2024-01-15T05:43:08;0.70;99.90
2062;DHT22;11070;51.336;12.340;2024-01-15T05:45:35;0.70;99.90
2062;DHT22;11070;51.336;12.340;2024-01-15T05:48:03;0.70;99.90
2062;DHT22;11070;51.336;12.340;2024-01-15T05:50:29;0.80;99.90
2062;DHT22;11070;51.336;12.340;2024-01-15T05:52:55;0.80;99.90
2062;DHT22;11070;51.336;12.340;2024-01-15T05:55:20;0.80;99.90
2062;DHT22;11070;51.336;12.340;2024-01-15T05:57:46;0.80;99.90
2062;DHT22;11070;51.336;12.340;2024-01-15T06:00:12;0.80;99.90
2062;DHT22;11070;51.336;12.340;2024-01-15T06:02:38;0.80;99.90
2062;DHT22;11070;51.336;12.340;2024-01-15T06:05:05;0.80;99.90
2062;DHT22;11070;51.336;12.340;2024-01-15T06:07:31;0.80;99.90
2062;DHT22;11070;51.336;12.340;2024-01-15T06:09:57;0.70;99.90
2062;DHT22;11070;51.336;12.340;2024-01-15T06:12:23;0.70;99.90
2062;DHT22;11070;51.336;12.340;2024-01-15T06:14:49;0.70;99.90
2062;DHT22;11070;51.336;12.340;2024-01-15T06:17:14;0.70;99.90
2062;DHT22;11070;51.336;12.340;2024-01-15T06:19:40;0.70;99.90
2062;DHT22;11070;51.336;12.340;2024-01-15T06:22:05;0.70;99.90
2062;DHT22;11070;51.336;12.340;2024-01-15T06:24:31;0.70;99.90
2062;DHT22;11070;51.336;12.340;2024-01-15T06:26:57;0.80;99.90
2062;DHT22;11070;51.336;12.340;2024-01-15T06:29:26;0.80;99.90
2062;DHT22;11070;51.336;12.340;2024-01-15T06:31:52;0.80;99.90
2062;DHT22;11070;51.336;12.340;2024-01-15T06:34:18;0.80;99.90
2062;DHT22;11070;51.336;12.340;2024-01-15T06:36:43;0.80;99.90
2062;DHT22;11070;51.336;12.340;2024-01-15T06:39:09;0.90;99.90
2062;DHT22;11070;51.336;12.340;2024-01-15T06:41:35;0.90;99.90
2062;DHT22;11070;51.336;12.340;2024-01-15T06:44:06;0.90;99.90
2062;DHT22;11070;51.336;12.340;2024-01-15T06:46:32;0.90;99.90
2062;DHT22;11070;51.336;12.340;2024-01-15T06:48:58;0.90;99.90
2062;DHT22;11070;51.336;12.340;2024-01-15T06:51:23;0.90;99.90
2062;DHT22;11070;51.336;12.340;2024-01-15T06:53:49;0.90;99.90
2062;DHT22;11070;51.336;12.340;2024-01-15T06:56:15;0.90;99.90
2062;DHT22;11070;51.336;12.340;2024-01-15T06:58:40;0.90;99.90
2062;DHT22;11070;51.336;12.340;2024-01-15T07:01:06;0.90;99.90
2062;DHT22;11070;51.336;12.340;2024-01-15T07:03:33;0.90;99.90
2062;DHT22;11070;51.336;12.340;2024-01-15T07:05:59;0.90;99.90
2062;DHT22;11070;51.336;12.340;2024-01-15T07:08:25;0.90;99.90
2062;DHT22;11070;51.336;12.340;2024-01-15T07:10:50;0.90;99.90
2062;DHT22;11070;51.336;12.340;2024-01-15T07:13:16;0.90;99.90
2062;DHT22;11070;51.336;12.340;2024-01-15T07:15:41;0.90;99.90
2062;DHT22;11070;51.336;12.340;2024-01-15T07:18:07;0.90;99.90
2062;DHT22;11070;51.336;12.340;2024-01-15T07:20:33;0.90;99.90
2062;DHT22;11070;51.336;12.340;2024-01-15T07:22:58;0.80;99.90
2062;DHT22;11070;51.336;12.340;2024-01-15T07:25:24;0.90;99.90
2062;DHT22;11070;51.336;12.340;2024-01-15T07:27:51;0.90;99.90
2062;DHT22;11070;51.336;12.340;2024-01-15T07:30:19;0.90;99.90
2062;DHT22;11070;51.336;12.340;2024-01-15T07:32:47;0.90;99.90
2062;DHT22;11070;51.336;12.340;2024-01-15T07:35:14;0.90;99.90
2062;DHT22;11070;51.336;12.340;2024-01-15T07:37:40;0.90;99.90
2062;DHT22;11070;51.336;12.340;2024-01-15T07:40:07;0.90;99.90
2062;DHT22;11070;51.336;12.340;2024-01-15T07:42:36;0.90;99.90
2062;DHT22;11070;51.336;12.340;2024-01-15T07:45:04;0.90;99.90
2062;DHT22;11070;51.336;12.340;2024-01-15T07:47:30;0.90;99.90
2062;DHT22;11070;51.336;12.340;2024-01-15T07:49:55;0.90;99.90
2062;DHT22;11070;51.336;12.340;2024-01-15T07:52:21;1.00;99.90
2062;DHT22;11070;51.336;12.340;2024-01-15T07:54:47;1.00;99.90
2062;DHT22;11070;51.336;12.340;2024-01-15T07:57:13;1.00;99.90
2062;DHT22;11070;51.336;12.340;2024-01-15T07:59:38;1.00;99.90
2062;DHT22;11070;51.336;12.340;2024-01-15T08:02:05;0.90;99.90
2062;DHT22;11070;51.336;12.340;2024-01-15T08:04:31;0.90;99.90
2062;DHT22;11070;51.336;12.340;2024-01-15T08:06:57;1.00;99.90
2062;DHT22;11070;51.336;12.340;2024-01-15T08:09:23;1.00;99.90
2062;DHT22;11070;51.336;12.340;2024-01-15T08:11:48;1.10;99.90
2062;DHT22;11070;51.336;12.340;2024-01-15T08:14:17;1.30;99.90
2062;DHT22;11070;51.336;12.340;2024-01-15T08:16:43;1.30;99.90
2062;DHT22;11070;51.336;12.340;2024-01-15T08:19:09;1.20;99.90
2062;DHT22;11070;51.336;12.340;2024-01-15T08:21:35;1.20;99.90
2062;DHT22;11070;51.336;12.340;2024-01-15T08:24:02;1.10;99.90
2062;DHT22;11070;51.336;12.340;2024-01-15T08:26:28;1.10;99.90
2062;DHT22;11070;51.336;12.340;2024-01-15T08:28:54;1.10;99.90
2062;DHT22;11070;51.336;12.340;2024-01-15T08:31:20;1.20;99.90
2062;DHT22;11070;51.336;12.340;2024-01-15T08:33:46;1.20;99.90
2062;DHT22;11070;51.336;12.340;2024-01-15T08:36:12;1.30;99.90
2062;DHT22;11070;51.336;12.340;2024-01-15T08:38:38;1.40;99.90
2062;DHT22;11070;51.336;12.340;2024-01-15T08:41:04;1.50;99.90
2062;DHT22;11070;51.336;12.340;2024-01-15T08:43:30;1.80;99.90
2062;DHT22;11070;51.336;12.340;2024-01-15T08:45:58;2.20;99.90
2062;DHT22;11070;51.336;12.340;2024-01-15T08:48:24;2.10;99.90
2062;DHT22;11070;51.336;12.340;2024-01-15T08:50:53;1.80;99.90
2062;DHT22;11070;51.336;12.340;2024-01-15T08:53:19;1.60;99.90
2062;DHT22;11070;51.336;12.340;2024-01-15T08:55:44;1.70;99.90
2062;DHT22;11070;51.336;12.340;2024-01-15T08:58:11;2.00;99.90
2062;DHT22;11070;51.336;12.340;2024-01-15T09:00:36;2.70;99.90
2062;DHT22;11070;51.336;12.340;2024-01-15T09:03:02;3.30;99.90
2062;DHT22;11070;51.336;12.340;2024-01-15T09:05:28;3.30;99.90
2062;DHT22;11070;51.336;12.340;2024-01-15T09:07:54;3.50;99.90
2062;DHT22;11070;51.336;12.340;2024-01-15T09:10:20;3.00;99.90
2062;DHT22;11070;51.336;12.340;2024-01-15T09:12:46;2.50;99.90
2062;DHT22;11070;51.336;12.340;2024-01-15T09:15:12;2.40;99.90
2062;DHT22;11070;51.336;12.340;2024-01-15T09:17:38;2.20;99.90
2062;DHT22;11070;51.336;12.340;2024-01-15T09:20:04;2.10;99.90
2062;DHT22;11070;51.336;12.340;2024-01-15T09:22:31;2.00;99.90
2062;DHT22;11070;51.336;12.340;2024-01-15T09:24:57;2.00;99.90
2062;DHT22;11070;51.336;12.340;2024-01-15T09:27:24;2.00;99.90
2062;DHT22;11070;51.336;12.340;2024-01-15T09:29:52;2.00;99.90
2062;DHT22;11070;51.336;12.340;2024-01-15T09:32:18;2.20;99.90
2062;DHT22;11070;51.336;12.340;2024-01-15T09:34:44;2.20;99.90
2062;DHT22;11070;51.336;12.340;2024-01-15T09:37:11;2.70;99.90
2062;DHT22;11070;51.336;12.340;2024-01-15T09:39:37;2.90;99.90
2062;DHT22;11070;51.336;12.340;2024-01-15T09:42:03;3.00;99.90
2062;DHT22;11070;51.336;12.340;2024-01-15T09:44:31;3.00;99.90
2062;DHT22;11070;51.336;12.340;2024-01-15T09:46:57;2.70;99.90
2062;DHT22;11070;51.336;12.340;2024-01-15T09:49:23;2.80;99.90
2062;DHT22;11070;51.336;12.340;2024-01-15T09:51:49;2.70;99.90
2062;DHT22;11070;51.336;12.340;2024-01-15T09:54:16;3.10;99.90
2062;DHT22;11070;51.336;12.340;2024-01-15T09:56:45;3.70;99.90
2062;DHT22;11070;51.336;12.340;2024-01-15T09:59:16;3.20;99.90
2062;DHT22;11070;51.336;12.340;2024-01-15T10:01:43;2.70;99.90
2062;DHT22;11070;51.336;12.340;2024-01-15T10:04:13;2.50;99.90
2062;DHT22;11070;51.336;12.340;2024-01-15T10:06:39;2.40;99.90
2062;DHT22;11070;51.336;12.340;2024-01-15T10:09:06;2.40;99.90
2062;DHT22;11070;51.336;12.340;2024-01-15T10:11:33;2.50;99.90
2062;DHT22;11070;51.336;12.340;2024-01-15T10:13:59;2.40;99.90
2062;DHT22;11070;51.336;12.340;2024-01-15T10:16:25;2.40;99.90
2062;DHT22;11070;51.336;12.340;2024-01-15T10:18:51;2.40;99.90
2062;DHT22;11070;51.336;12.340;2024-01-15T10:21:17;2.40;99.90
2062;DHT22;11070;51.336;12.340;2024-01-15T10:23:43;2.40;99.90
2062;DHT22;11070;51.336;12.340;2024-01-15T10:26:09;2.30;99.90
2062;DHT22;11070;51.336;12.340;2024-01-15T10:28:37;2.20;99.90
2062;DHT22;11070;51.336;12.340;2024-01-15T10:31:03;2.10;99.90
2062;DHT22;11070;51.336;12.340;2024-01-15T10:33:28;2.20;99.90
2062;DHT22;11070;51.336;12.340;2024-01-15T10:35:55;2.20;99.90
2062;DHT22;11070;51.336;12.340;2024-01-15T10:38:22;2.10;99.90
2062;DHT22;11070;51.336;12.340;2024-01-15T10:40:51;2.20;99.90
2062;DHT22;11070;51.336;12.340;2024-01-15T10:43:17;2.30;99.90
2062;DHT22;11070;51.336;12.340;2024-01-15T10:45:46;2.30;99.90
2062;DHT22;11070;51.336;12.340;2024-01-15T10:48:13;2.20;99.90
2062;DHT22;11070;51.336;12.340;2024-01-15T10:50:39;2.20;99.90
2062;DHT22;11070;51.336;12.340;2024-01-15T10:53:05;2.20;99.90
2062;DHT22;11070;51.336;12.340;2024-01-15T10:55:31;2.20;99.90
2062;DHT22;11070;51.336;12.340;2024-01-15T10:57:59;2.20;99.90
2062;DHT22;11070;51.336;12.340;2024-01-15T11:00:25;2.20;99.90
2062;DHT22;11070;51.336;12.340;2024-01-15T11:02:51;2.20;99.90
2062;DHT22;11070;51.336;12.340;2024-01-15T11:05:21;2.30;99.90
2062;DHT22;11070;51.336;12.340;2024-01-15T11:07:48;2.30;99.90
2062;DHT22;11070;51.336;12.340;2024-01-15T11:10:47;2.30;99.90
2062;DHT22;11070;51.336;12.340;2024-01-15T11:15:56;2.40;99.90
2062;DHT22;11070;51.336;12.340;2024-01-15T11:18:30;2.40;99.90
2062;DHT22;11070;51.336;12.340;2024-01-15T11:23:50;2.40;99.90
2062;DHT22;11070;51.336;12.340;2024-01-15T11:28:55;2.40;99.90
2062;DHT22;11070;51.336;12.340;2024-01-15T11:34:06;2.40;99.90
2062;DHT22;11070;51.336;12.340;2024-01-15T11:39:39;2.40;99.90
2062;DHT22;11070;51.336;12.340;2024-01-15T11:42:06;2.40;99.90
2062;DHT22;11070;51.336;12.340;2024-01-15T11:44:32;2.40;99.90
2062;DHT22;11070;51.336;12.340;2024-01-15T11:46:59;2.40;99.90
2062;DHT22;11070;51.336;12.340;2024-01-15T11:52:01;2.40;99.90
2062;DHT22;11070;51.336;12.340;2024-01-15T11:54:33;2.50;99.90
2062;DHT22;11070;51.336;12.340;2024-01-15T11:57:07;2.60;99.90
2062;DHT22;11070;51.336;12.340;2024-01-15T11:59:35;2.60;99.90
2062;DHT22;11070;51.336;12.340;2024-01-15T12:02:02;2.60;99.90
2062;DHT22;11070;51.336;12.340;2024-01-15T12:04:28;2.60;99.90
2062;DHT22;11070;51.336;12.340;2024-01-15T12:06:54;2.70;99.90
2062;DHT22;11070;51.336;12.340;2024-01-15T12:09:19;2.60;99.90
2062;DHT22;11070;51.336;12.340;2024-01-15T12:11:51;2.60;99.90
2062;DHT22;11070;51.336;12.340;2024-01-15T12:14:21;2.50;99.90
2062;DHT22;11070;51.336;12.340;2024-01-15T12:16:48;2.40;99.90
2062;DHT22;11070;51.336;12.340;2024-01-15T12:19:15;2.50;99.90
2062;DHT22;11070;51.336;12.340;2024-01-15T12:21:40;2.60;99.90
2062;DHT22;11070;51.336;12.340;2024-01-15T12:24:07;2.70;99.90
2062;DHT22;11070;51.336;12.340;2024-01-15T12:26:33;2.70;99.90
2062;DHT22;11070;51.336;12.340;2024-01-15T12:29:02;2.60;99.90
2062;DHT22;11070;51.336;12.340;2024-01-15T12:31:29;2.60;99.90
2062;DHT22;11070;51.336;12.340;2024-01-15T12:33:56;2.50;99.90
2062;DHT22;11070;51.336;12.340;2024-01-15T12:36:21;2.60;99.90
2062;DHT22;11070;51.336;12.340;2024-01-15T12:38:47;2.50;99.90
2062;DHT22;11070;51.336;12.340;2024-01-15T12:41:13;2.60;99.90
2062;DHT22;11070;51.336;12.340;2024-01-15T12:43:39;2.60;99.90
2062;DHT22;11070;51.336;12.340;2024-01-15T12:46:06;2.70;99.90
2062;DHT22;11070;51.336;12.340;2024-01-15T12:48:31;2.70;99.90
2062;DHT22;11070;51.336;12.340;2024-01-15T12:50:57;2.70;99.90
2062;DHT22;11070;51.336;12.340;2024-01-15T12:53:23;2.70;99.90
2062;DHT22;11070;51.336;12.340;2024-01-15T12:55:48;2.60;99.90
2062;DHT22;11070;51.336;12.340;2024-01-15T12:58:14;2.60;99.90
2062;DHT22;11070;51.336;12.340;2024-01-15T13:00:40;2.50;99.90
2062;DHT22;11070;51.336;12.340;2024-01-15T13:03:05;2.50;99.90
2062;DHT22;11070;51.336;12.340;2024-01-15T13:05:32;2.50;99.90
2062;DHT22;11070;51.336;12.340;2024-01-15T13:07:59;2.50;99.90
2062;DHT22;11070;51.336;12.340;2024-01-15T13:10:25;2.50;99.90
2062;DHT22;11070;51.336;12.340;2024-01-15T13:12:51;2.40;99.90
2062;DHT22;11070;51.336;12.340;2024-01-15T13:15:16;2.40;99.90
2062;DHT22;11070;51.336;12.340;2024-01-15T13:17:42;2.40;99.90
2062;DHT22;11070;51.336;12.340;2024-01-15T13:20:08;2.50;99.90
2062;DHT22;11070;51.336;12.340;2024-01-15T13:22:34;2.50;99.90
2062;DHT22;11070;51.336;12.340;2024-01-15T13:25:00;2.50;99.90
2062;DHT22;11070;51.336;12.340;2024-01-15T13:27:26;2.50;99.90
2062;DHT22;11070;51.336;12.340;2024-01-15T13:29:51;2.50;99.90
2062;DHT22;11070;51.336;12.340;2024-01-15T13:32:24;2.50;99.90
2062;DHT22;11070;51.336;12.340;2024-01-15T13:34:55;2.50;99.90
2062;DHT22;11070;51.336;12.340;2024-01-15T13:37:21;2.50;99.90
2062;DHT22;11070;51.336;12.340;2024-01-15T13:39:46;2.60;99.90
2062;DHT22;11070;51.336;12.340;2024-01-15T13:42:12;2.60;99.90
2062;DHT22;11070;51.336;12.340;2024-01-15T13:44:38;2.50;99.90
2062;DHT22;11070;51.336;12.340;2024-01-15T13:47:03;2.50;99.90
2062;DHT22;11070;51.336;12.340;2024-01-15T13:49:30;2.50;99.90
2062;DHT22;11070;51.336;12.340;2024-01-15T13:51:56;2.50;99.90
2062;DHT22;11070;51.336;12.340;2024-01-15T13:54:22;2.50;99.90
2062;DHT22;11070;51.336;12.340;2024-01-15T13:56:48;2.50;99.90
2062;DHT22;11070;51.336;12.340;2024-01-15T13:59:15;2.50;99.90
2062;DHT22;11070;51.336;12.340;2024-01-15T14:01:42;2.50;99.90
2062;DHT22;11070;51.336;12.340;2024-01-15T14:04:07;2.50;99.90
2062;DHT22;11070;51.336;12.340;2024-01-15T14:06:33;2.60;99.90
2062;DHT22;11070;51.336;12.340;2024-01-15T14:08:58;2.60;99.90
2062;DHT22;11070;51.336;12.340;2024-01-15T14:11:24;2.60;99.90
2062;DHT22;11070;51.336;12.340;2024-01-15T14:13:50;2.50;99.90
2062;DHT22;11070;51.336;12.340;2024-01-15T14:16:16;2.50;99.90
2062;DHT22;11070;51.336;12.340;2024-01-15T14:18:42;2.50;99.90
2062;DHT22;11070;51.336;12.340;2024-01-15T14:21:07;2.40;99.90
2062;DHT22;11070;51.336;12.340;2024-01-15T14:23:33;2.40;99.90
2062;DHT22;11070;51.336;12.340;2024-01-15T14:25:59;2.40;99.90
2062;DHT22;11070;51.336;12.340;2024-01-15T14:28:25;2.40;99.90
2062;DHT22;11070;51.336;12.340;2024-01-15T14:30:51;2.40;99.90
2062;DHT22;11070;51.336;12.340;2024-01-15T14:33:16;2.40;99.90
2062;DHT22;11070;51.336;12.340;2024-01-15T14:35:42;2.30;99.90
2062;DHT22;11070;51.336;12.340;2024-01-15T14:38:08;2.40;99.90
2062;DHT22;11070;51.336;12.340;2024-01-15T14:40:34;2.40;99.90
2062;DHT22;11070;51.336;12.340;2024-01-15T14:43:02;2.40;99.90
2062;DHT22;11070;51.336;12.340;2024-01-15T14:45:28;2.30;99.90
2062;DHT22;11070;51.336;12.340;2024-01-15T14:47:55;2.30;99.90
2062;DHT22;11070;51.336;12.340;2024-01-15T14:50:22;2.30;99.90
2062;DHT22;11070;51.336;12.340;2024-01-15T14:52:48;2.30;99.90
2062;DHT22;11070;51.336;12.340;2024-01-15T14:55:14;2.30;99.90
2062;DHT22;11070;51.336;12.340;2024-01-15T14:57:40;2.30;99.90
2062;DHT22;11070;51.336;12.340;2024-01-15T15:00:06;2.20;99.90
2062;DHT22;11070;51.336;12.340;2024-01-15T15:02:34;2.30;99.90
2062;DHT22;11070;51.336;12.340;2024-01-15T15:05:01;2.20;99.90
2062;DHT22;11070;51.336;12.340;2024-01-15T15:07:27;2.30;99.90
2062;DHT22;11070;51.336;12.340;2024-01-15T15:09:52;2.50;99.90
2062;DHT22;11070;51.336;12.340;2024-01-15T15:12:18;2.40;99.90
2062;DHT22;11070;51.336;12.340;2024-01-15T15:14:44;2.30;99.90
2062;DHT22;11070;51.336;12.340;2024-01-15T15:17:10;2.20;99.90
2062;DHT22;11070;51.336;12.340;2024-01-15T15:19:35;2.20;99.90
2062;DHT22;11070;51.336;12.340;2024-01-15T15:22:01;2.20;99.90
2062;DHT22;11070;51.336;12.340;2024-01-15T15:24:27;2.10;99.90
2062;DHT22;11070;51.336;12.340;2024-01-15T15:26:53;2.10;99.90
2062;DHT22;11070;51.336;12.340;2024-01-15T15:29:18;2.10;99.90
2062;DHT22;11070;51.336;12.340;2024-01-15T15:31:45;2.10;99.90
2062;DHT22;11070;51.336;12.340;2024-01-15T15:34:11;2.00;99.90
2062;DHT22;11070;51.336;12.340;2024-01-15T15:36:37;2.10;99.90
2062;DHT22;11070;51.336;12.340;2024-01-15T15:39:02;2.00;99.90
2062;DHT22;11070;51.336;12.340;2024-01-15T15:41:28;2.00;99.90
2062;DHT22;11070;51.336;12.340;2024-01-15T15:43:54;2.00;99.90
2062;DHT22;11070;51.336;12.340;2024-01-15T15:46:20;2.00;99.90
2062;DHT22;11070;51.336;12.340;2024-01-15T15:48:46;1.90;99.90
2062;DHT22;11070;51.336;12.340;2024-01-15T15:51:11;1.90;99.90
2062;DHT22;11070;51.336;12.340;2024-01-15T15:53:37;1.90;99.90
2062;DHT22;11070;51.336;12.340;2024-01-15T15:56:03;1.90;99.90